sensor_id;sensor_type;location;lat;lon;timestamp;pressure;altitude;pressure_sealevel;temperature;humidity
76378;BME280;65200;49.500;8.654;2024-02-21T00:00:34;101444.84;;;13.35;57.83
76378;BME280;65200;49.500;8.654;2024-02-21T00:03:04;101447.66;;;13.19;57.65
76378;BME280;65200;49.500;8.654;2024-02-21T00:05:32;101448.25;;;12.84;58.70
76378;BME280;65200;49.500;8.654;2024-02-21T00:07:59;101444.78;;;12.98;58.02
76378;BME280;65200;49.500;8.654;2024-02-21T00:10:27;101436.69;;;13.43;57.74
76378;BME280;65200;49.500;8.654;2024-02-21T00:12:56;101435.59;;;13.52;56.33
76378;BME280;65200;49.500;8.654;2024-02-21T00:15:25;101440.69;;;13.47;57.37
76378;BME280;65200;49.500;8.654;2024-02-21T00:17:53;101432.91;;;12.93;58.87
76378;BME280;65200;49.500;8.654;2024-02-21T00:20:21;101429.84;;;13.18;58.72
76378;BME280;65200;49.500;8.654;2024-02-21T00:22:49;101423.59;;;13.03;57.02
76378;BME280;65200;49.500;8.654;2024-02-21T00:25:17;101421.00;;;13.47;58.01
76378;BME280;65200;49.500;8.654;2024-02-21T00:27:44;101422.19;;;13.30;57.74
76378;BME280;65200;49.500;8.654;2024-02-21T00:30:13;101413.69;;;12.96;59.13
76378;BME280;65200;49.500;8.654;2024-02-21T00:32:41;101419.72;;;13.06;58.23
76378;BME280;65200;49.500;8.654;2024-02-21T00:35:09;101415.63;;;13.10;58.84
76378;BME280;65200;49.500;8.654;2024-02-21T00:37:36;101410.94;;;12.81;57.94
76378;BME280;65200;49.500;8.654;2024-02-21T00:40:05;101404.91;;;13.24;57.23
76378;BME280;65200;49.500;8.654;2024-02-21T00:42:33;101394.03;;;13.32;57.38
76378;BME280;65200;49.500;8.654;2024-02-21T00:45:00;101398.91;;;13.14;57.60
76378;BME280;65200;49.500;8.654;2024-02-21T00:47:29;101400.00;;;12.83;59.10
76378;BME280;65200;49.500;8.654;2024-02-21T00:49:57;101390.56;;;13.09;59.25
76378;BME280;65200;49.500;8.654;2024-02-21T00:52:25;101387.78;;;12.95;59.00
76378;BME280;65200;49.500;8.654;2024-02-21T00:54:52;101390.56;;;13.09;57.70
76378;BME280;65200;49.500;8.654;2024-02-21T00:57:20;101378.75;;;13.33;57.74
76378;BME280;65200;49.500;8.654;2024-02-21T00:59:48;101371.41;;;13.04;58.56
76378;BME280;65200;49.500;8.654;2024-02-21T01:02:16;101352.28;;;12.77;60.06
76378;BME280;65200;49.500;8.654;2024-02-21T01:04:45;101354.09;;;12.84;58.80
76378;BME280;65200;49.500;8.654;2024-02-21T01:07:12;101349.41;;;13.23;58.63
76378;BME280;65200;49.500;8.654;2024-02-21T01:09:40;101350.28;;;13.16;57.09
76378;BME280;65200;49.500;8.654;2024-02-21T01:12:07;101358.56;;;12.69;60.64
76378;BME280;65200;49.500;8.654;2024-02-21T01:14:35;101356.22;;;12.89;59.60
76378;BME280;65200;49.500;8.654;2024-02-21T01:17:03;101353.66;;;12.95;59.32
76378;BME280;65200;49.500;8.654;2024-02-21T01:19:32;101355.97;;;13.21;58.40
76378;BME280;65200;49.500;8.654;2024-02-21T01:22:01;101358.44;;;12.85;59.07
76378;BME280;65200;49.500;8.654;2024-02-21T01:24:29;101351.47;;;12.76;58.78
76378;BME280;65200;49.500;8.654;2024-02-21T01:26:56;101349.59;;;12.77;60.60
76378;BME280;65200;49.500;8.654;2024-02-21T01:29:24;101347.09;;;12.75;59.75
76378;BME280;65200;49.500;8.654;2024-02-21T01:31:51;101342.56;;;12.76;58.69
76378;BME280;65200;49.500;8.654;2024-02-21T01:34:19;101327.47;;;12.89;59.38
76378;BME280;65200;49.500;8.654;2024-02-21T01:36:47;101335.00;;;12.94;59.03
76378;BME280;65200;49.500;8.654;2024-02-21T01:39:16;101332.69;;;12.91;60.26
76378;BME280;65200;49.500;8.654;2024-02-21T01:41:43;101325.66;;;13.04;58.65
76378;BME280;65200;49.500;8.654;2024-02-21T01:44:11;101330.28;;;12.96;59.26
76378;BME280;65200;49.500;8.654;2024-02-21T01:46:39;101329.50;;;12.87;59.16
76378;BME280;65200;49.500;8.654;2024-02-21T01:49:07;101328.81;;;12.71;59.21
76378;BME280;65200;49.500;8.654;2024-02-21T01:51:36;101340.75;;;12.91;60.59
76378;BME280;65200;49.500;8.654;2024-02-21T01:54:04;101340.19;;;13.18;59.79
76378;BME280;65200;49.500;8.654;2024-02-21T01:56:33;101329.06;;;12.98;59.60
76378;BME280;65200;49.500;8.654;2024-02-21T01:59:01;101316.06;;;12.87;59.68
76378;BME280;65200;49.500;8.654;2024-02-21T02:01:29;101312.06;;;13.06;59.60
76378;BME280;65200;49.500;8.654;2024-02-21T02:03:59;101311.59;;;13.02;59.50
76378;BME280;65200;49.500;8.654;2024-02-21T02:06:27;101303.94;;;12.46;61.29
76378;BME280;65200;49.500;8.654;2024-02-21T02:08:54;101310.94;;;12.78;60.03
76378;BME280;65200;49.500;8.654;2024-02-21T02:11:22;101317.19;;;12.93;59.81
76378;BME280;65200;49.500;8.654;2024-02-21T02:13:51;101316.06;;;12.87;60.19
76378;BME280;65200;49.500;8.654;2024-02-21T02:16:19;101307.72;;;12.60;60.37
76378;BME280;65200;49.500;8.654;2024-02-21T02:18:46;101308.78;;;12.73;61.77
76378;BME280;65200;49.500;8.654;2024-02-21T02:21:23;101309.94;;;13.30;59.81
76378;BME280;65200;49.500;8.654;2024-02-21T02:23:52;101299.78;;;13.03;60.53
76378;BME280;65200;49.500;8.654;2024-02-21T02:26:20;101286.19;;;12.97;59.04
76378;BME280;65200;49.500;8.654;2024-02-21T02:28:47;101275.84;;;12.71;61.85
76378;BME280;65200;49.500;8.654;2024-02-21T02:31:15;101277.53;;;12.50;62.67
76378;BME280;65200;49.500;8.654;2024-02-21T02:33:43;101278.03;;;12.90;59.96
76378;BME280;65200;49.500;8.654;2024-02-21T02:36:11;101266.03;;;13.01;61.31
76378;BME280;65200;49.500;8.654;2024-02-21T02:38:39;101274.47;;;12.90;60.78
76378;BME280;65200;49.500;8.654;2024-02-21T02:41:08;101264.56;;;12.90;60.45
76378;BME280;65200;49.500;8.654;2024-02-21T02:43:35;101259.59;;;13.02;59.96
76378;BME280;65200;49.500;8.654;2024-02-21T02:46:03;101249.16;;;12.70;61.20
76378;BME280;65200;49.500;8.654;2024-02-21T02:48:31;101253.97;;;12.74;61.26
76378;BME280;65200;49.500;8.654;2024-02-21T02:50:59;101250.06;;;12.77;60.53
76378;BME280;65200;49.500;8.654;2024-02-21T02:53:26;101236.69;;;12.31;61.93
76378;BME280;65200;49.500;8.654;2024-02-21T02:55:54;101242.78;;;12.48;61.23
76378;BME280;65200;49.500;8.654;2024-02-21T02:58:23;101253.34;;;12.50;62.94
76378;BME280;65200;49.500;8.654;2024-02-21T03:00:50;101246.06;;;12.58;61.00
76378;BME280;65200;49.500;8.654;2024-02-21T03:03:18;101243.06;;;12.53;62.68
76378;BME280;65200;49.500;8.654;2024-02-21T03:05:45;101239.16;;;12.78;61.11
76378;BME280;65200;49.500;8.654;2024-02-21T03:08:13;101234.31;;;12.88;61.32
76378;BME280;65200;49.500;8.654;2024-02-21T03:10:41;101227.63;;;12.70;60.64
76378;BME280;65200;49.500;8.654;2024-02-21T03:13:09;101227.97;;;12.52;62.44
76378;BME280;65200;49.500;8.654;2024-02-21T03:15:37;101223.44;;;12.82;60.15
76378;BME280;65200;49.500;8.654;2024-02-21T03:18:04;101209.97;;;12.53;63.00
76378;BME280;65200;49.500;8.654;2024-02-21T03:20:32;101229.34;;;12.48;61.25
76378;BME280;65200;49.500;8.654;2024-02-21T03:23:00;101225.72;;;12.56;62.23
76378;BME280;65200;49.500;8.654;2024-02-21T03:25:27;101220.94;;;12.80;60.23
76378;BME280;65200;49.500;8.654;2024-02-21T03:27:55;101210.28;;;12.72;60.97
76378;BME280;65200;49.500;8.654;2024-02-21T03:30:23;101205.47;;;12.97;59.77
76378;BME280;65200;49.500;8.654;2024-02-21T03:32:52;101211.13;;;12.73;60.96
76378;BME280;65200;49.500;8.654;2024-02-21T03:35:22;101199.28;;;12.44;62.23
76378;BME280;65200;49.500;8.654;2024-02-21T03:37:53;101205.19;;;12.92;59.84
76378;BME280;65200;49.500;8.654;2024-02-21T03:40:20;101201.13;;;12.81;61.37
76378;BME280;65200;49.500;8.654;2024-02-21T03:42:48;101189.41;;;12.22;61.60
76378;BME280;65200;49.500;8.654;2024-02-21T03:45:16;101195.38;;;12.10;63.56
76378;BME280;65200;49.500;8.654;2024-02-21T03:47:43;101188.31;;;12.31;62.74
76378;BME280;65200;49.500;8.654;2024-02-21T03:50:12;101185.88;;;12.59;61.38
76378;BME280;65200;49.500;8.654;2024-02-21T03:52:40;101193.53;;;12.10;63.22
76378;BME280;65200;49.500;8.654;2024-02-21T03:55:08;101195.63;;;12.60;60.08
76378;BME280;65200;49.500;8.654;2024-02-21T03:57:35;101200.19;;;12.74;61.05
76378;BME280;65200;49.500;8.654;2024-02-21T04:00:04;101214.28;;;12.76;60.67
76378;BME280;65200;49.500;8.654;2024-02-21T04:02:37;101216.50;;;12.87;60.14
76378;BME280;65200;49.500;8.654;2024-02-21T04:05:04;101226.34;;;12.43;61.80
76378;BME280;65200;49.500;8.654;2024-02-21T04:07:39;101223.34;;;12.75;60.13
76378;BME280;65200;49.500;8.654;2024-02-21T04:10:07;101234.31;;;12.88;60.58
76378;BME280;65200;49.500;8.654;2024-02-21T04:12:35;101230.72;;;12.81;61.38
76378;BME280;65200;49.500;8.654;2024-02-21T04:15:04;101232.88;;;13.29;59.16
76378;BME280;65200;49.500;8.654;2024-02-21T04:17:32;101228.72;;;13.27;59.05
76378;BME280;65200;49.500;8.654;2024-02-21T04:20:02;101227.13;;;13.03;61.00
76378;BME280;65200;49.500;8.654;2024-02-21T04:22:31;101210.94;;;12.74;59.80
76378;BME280;65200;49.500;8.654;2024-02-21T04:25:01;101214.94;;;12.93;59.75
76378;BME280;65200;49.500;8.654;2024-02-21T04:27:29;101216.25;;;12.97;59.12
76378;BME280;65200;49.500;8.654;2024-02-21T04:29:57;101201.53;;;12.56;61.48
76378;BME280;65200;49.500;8.654;2024-02-21T04:32:24;101196.13;;;12.93;59.10
76378;BME280;65200;49.500;8.654;2024-02-21T04:34:53;101189.31;;;12.68;60.15
76378;BME280;65200;49.500;8.654;2024-02-21T04:37:21;101182.28;;;12.67;60.55
76378;BME280;65200;49.500;8.654;2024-02-21T04:39:49;101184.41;;;12.71;59.29
76378;BME280;65200;49.500;8.654;2024-02-21T04:42:18;101175.69;;;12.84;58.92
76378;BME280;65200;49.500;8.654;2024-02-21T04:44:46;101175.47;;;12.56;60.19
76378;BME280;65200;49.500;8.654;2024-02-21T04:47:14;101163.34;;;12.46;60.88
76378;BME280;65200;49.500;8.654;2024-02-21T04:49:42;101158.75;;;12.46;60.23
76378;BME280;65200;49.500;8.654;2024-02-21T04:52:09;101156.81;;;12.40;61.55
76378;BME280;65200;49.500;8.654;2024-02-21T04:54:37;101162.25;;;12.84;60.44
76378;BME280;65200;49.500;8.654;2024-02-21T04:57:05;101155.88;;;12.33;61.47
76378;BME280;65200;49.500;8.654;2024-02-21T04:59:34;101147.28;;;12.15;60.89
76378;BME280;65200;49.500;8.654;2024-02-21T05:02:02;101148.31;;;12.14;60.87
76378;BME280;65200;49.500;8.654;2024-02-21T05:04:30;101140.84;;;12.24;61.83
76378;BME280;65200;49.500;8.654;2024-02-21T05:06:59;101131.59;;;12.04;61.83
76378;BME280;65200;49.500;8.654;2024-02-21T05:09:27;101132.19;;;12.14;61.74
76378;BME280;65200;49.500;8.654;2024-02-21T05:11:55;101134.66;;;12.01;61.20
76378;BME280;65200;49.500;8.654;2024-02-21T05:14:23;101117.56;;;12.16;61.71
76378;BME280;65200;49.500;8.654;2024-02-21T05:16:51;101128.81;;;12.34;61.67
76378;BME280;65200;49.500;8.654;2024-02-21T05:19:19;101127.50;;;12.16;61.25
76378;BME280;65200;49.500;8.654;2024-02-21T05:21:47;101123.78;;;12.17;61.28
76378;BME280;65200;49.500;8.654;2024-02-21T05:24:15;101118.50;;;11.86;61.86
76378;BME280;65200;49.500;8.654;2024-02-21T05:26:42;101139.00;;;12.02;61.29
76378;BME280;65200;49.500;8.654;2024-02-21T05:29:10;101129.06;;;11.88;62.61
76378;BME280;65200;49.500;8.654;2024-02-21T05:31:56;101122.13;;;12.30;60.27
76378;BME280;65200;49.500;8.654;2024-02-21T05:34:25;101122.78;;;11.73;61.73
76378;BME280;65200;49.500;8.654;2024-02-21T05:36:53;101121.00;;;11.88;62.67
76378;BME280;65200;49.500;8.654;2024-02-21T05:39:21;101112.66;;;11.83;62.60
76378;BME280;65200;49.500;8.654;2024-02-21T05:41:49;101107.41;;;11.67;62.93
76378;BME280;65200;49.500;8.654;2024-02-21T05:44:18;101107.13;;;11.54;62.77
76378;BME280;65200;49.500;8.654;2024-02-21T05:46:46;101112.84;;;11.81;62.27
76378;BME280;65200;49.500;8.654;2024-02-21T05:49:15;101117.63;;;12.08;61.81
76378;BME280;65200;49.500;8.654;2024-02-21T05:51:43;101120.41;;;12.15;61.31
76378;BME280;65200;49.500;8.654;2024-02-21T05:54:10;101120.19;;;12.02;61.39
76378;BME280;65200;49.500;8.654;2024-02-21T05:56:38;101122.13;;;12.16;61.57
76378;BME280;65200;49.500;8.654;2024-02-21T05:59:05;101110.84;;;11.98;61.50
76378;BME280;65200;49.500;8.654;2024-02-21T06:01:33;101114.03;;;11.79;60.96
76378;BME280;65200;49.500;8.654;2024-02-21T06:04:01;101105.84;;;11.95;61.26
76378;BME280;65200;49.500;8.654;2024-02-21T06:06:30;101098.56;;;11.81;61.84
76378;BME280;65200;49.500;8.654;2024-02-21T06:08:57;101097.81;;;12.09;60.15
76378;BME280;65200;49.500;8.654;2024-02-21T06:11:25;101077.22;;;11.34;62.48
76378;BME280;65200;49.500;8.654;2024-02-21T06:13:53;101080.53;;;11.44;62.32
76378;BME280;65200;49.500;8.654;2024-02-21T06:16:21;101079.31;;;11.24;63.07
76378;BME280;65200;49.500;8.654;2024-02-21T06:18:49;101087.56;;;11.45;63.11
76378;BME280;65200;49.500;8.654;2024-02-21T06:21:16;101086.00;;;11.28;62.21
76378;BME280;65200;49.500;8.654;2024-02-21T06:23:45;101082.50;;;11.50;62.24
76378;BME280;65200;49.500;8.654;2024-02-21T06:26:13;101087.69;;;11.52;61.49
76378;BME280;65200;49.500;8.654;2024-02-21T06:28:41;101088.13;;;11.63;60.62
76378;BME280;65200;49.500;8.654;2024-02-21T06:31:09;101089.06;;;11.48;61.51
76378;BME280;65200;49.500;8.654;2024-02-21T06:33:36;101083.91;;;11.69;60.71
76378;BME280;65200;49.500;8.654;2024-02-21T06:36:05;101095.81;;;11.66;60.63
76378;BME280;65200;49.500;8.654;2024-02-21T06:38:32;101095.66;;;11.90;59.97
76378;BME280;65200;49.500;8.654;2024-02-21T06:41:02;101094.47;;;11.40;62.13
76378;BME280;65200;49.500;8.654;2024-02-21T06:43:30;101091.47;;;11.88;61.05
76378;BME280;65200;49.500;8.654;2024-02-21T06:45:58;101075.00;;;12.05;60.08
76378;BME280;65200;49.500;8.654;2024-02-21T06:48:26;101082.31;;;11.52;60.89
76378;BME280;65200;49.500;8.654;2024-02-21T06:50:53;101083.50;;;11.49;61.08
76378;BME280;65200;49.500;8.654;2024-02-21T06:53:21;101081.44;;;11.82;60.42
76378;BME280;65200;49.500;8.654;2024-02-21T06:55:48;101090.94;;;11.70;60.15
76378;BME280;65200;49.500;8.654;2024-02-21T06:58:18;101077.78;;;12.12;58.59
76378;BME280;65200;49.500;8.654;2024-02-21T07:00:45;101082.38;;;11.89;60.56
76378;BME280;65200;49.500;8.654;2024-02-21T07:03:13;101078.03;;;11.88;58.85
76378;BME280;65200;49.500;8.654;2024-02-21T07:05:40;101082.22;;;11.68;60.75
76378;BME280;65200;49.500;8.654;2024-02-21T07:08:08;101085.28;;;12.02;58.95
76378;BME280;65200;49.500;8.654;2024-02-21T07:10:36;101078.38;;;11.62;59.98
76378;BME280;65200;49.500;8.654;2024-02-21T07:13:04;101082.78;;;11.55;61.04
76378;BME280;65200;49.500;8.654;2024-02-21T07:15:33;101081.81;;;11.79;60.40
76378;BME280;65200;49.500;8.654;2024-02-21T07:18:00;101085.00;;;11.52;59.78
76378;BME280;65200;49.500;8.654;2024-02-21T07:20:28;101088.75;;;12.25;58.09
76378;BME280;65200;49.500;8.654;2024-02-21T07:22:56;101076.44;;;11.79;58.25
76378;BME280;65200;49.500;8.654;2024-02-21T07:25:23;101076.44;;;12.16;58.17
76378;BME280;65200;49.500;8.654;2024-02-21T07:27:51;101072.91;;;12.30;57.49
76378;BME280;65200;49.500;8.654;2024-02-21T07:30:18;101075.22;;;12.18;58.13
76378;BME280;65200;49.500;8.654;2024-02-21T07:32:50;101077.25;;;12.16;57.95
76378;BME280;65200;49.500;8.654;2024-02-21T07:35:17;101063.81;;;12.16;58.50
76378;BME280;65200;49.500;8.654;2024-02-21T07:37:45;101056.50;;;12.54;58.26
76378;BME280;65200;49.500;8.654;2024-02-21T07:40:13;101060.03;;;12.25;59.44
76378;BME280;65200;49.500;8.654;2024-02-21T07:42:42;101060.31;;;11.79;60.29
76378;BME280;65200;49.500;8.654;2024-02-21T07:45:18;101059.56;;;12.22;58.50
76378;BME280;65200;49.500;8.654;2024-02-21T07:47:50;101069.94;;;11.73;60.28
76378;BME280;65200;49.500;8.654;2024-02-21T07:50:18;101064.94;;;11.70;59.89
76378;BME280;65200;49.500;8.654;2024-02-21T07:52:45;101074.69;;;11.86;60.40
76378;BME280;65200;49.500;8.654;2024-02-21T07:55:13;101068.28;;;12.24;60.15
76378;BME280;65200;49.500;8.654;2024-02-21T07:57:41;101060.88;;;12.40;59.12
76378;BME280;65200;49.500;8.654;2024-02-21T08:00:09;101061.69;;;12.26;59.93
76378;BME280;65200;49.500;8.654;2024-02-21T08:02:41;101063.91;;;11.71;60.99
76378;BME280;65200;49.500;8.654;2024-02-21T08:05:11;101053.91;;;12.17;59.09
76378;BME280;65200;49.500;8.654;2024-02-21T08:07:39;101053.81;;;12.39;59.29
76378;BME280;65200;49.500;8.654;2024-02-21T08:10:07;101048.16;;;12.49;59.22
76378;BME280;65200;49.500;8.654;2024-02-21T08:12:35;101046.69;;;12.17;59.32
76378;BME280;65200;49.500;8.654;2024-02-21T08:15:03;101039.47;;;12.62;57.52
76378;BME280;65200;49.500;8.654;2024-02-21T08:17:31;101037.06;;;12.67;58.50
76378;BME280;65200;49.500;8.654;2024-02-21T08:19:58;101040.47;;;12.31;58.63
76378;BME280;65200;49.500;8.654;2024-02-21T08:22:28;101042.84;;;12.70;56.48
76378;BME280;65200;49.500;8.654;2024-02-21T08:24:56;101039.91;;;12.36;58.97
76378;BME280;65200;49.500;8.654;2024-02-21T08:27:23;101044.94;;;12.24;59.89
76378;BME280;65200;49.500;8.654;2024-02-21T08:29:51;101034.53;;;12.51;57.56
76378;BME280;65200;49.500;8.654;2024-02-21T08:32:18;101036.00;;;12.82;58.16
76378;BME280;65200;49.500;8.654;2024-02-21T08:34:46;101034.22;;;13.04;57.42
76378;BME280;65200;49.500;8.654;2024-02-21T08:37:14;101017.50;;;13.08;55.59
76378;BME280;65200;49.500;8.654;2024-02-21T08:39:43;101016.41;;;13.24;55.34
76378;BME280;65200;49.500;8.654;2024-02-21T08:42:11;101009.88;;;13.12;55.59
76378;BME280;65200;49.500;8.654;2024-02-21T08:44:39;101001.59;;;13.76;54.61
76378;BME280;65200;49.500;8.654;2024-02-21T08:47:07;100998.50;;;13.79;53.90
76378;BME280;65200;49.500;8.654;2024-02-21T08:49:36;100995.19;;;13.56;56.05
76378;BME280;65200;49.500;8.654;2024-02-21T08:52:04;100996.16;;;13.07;56.04
76378;BME280;65200;49.500;8.654;2024-02-21T08:54:32;101005.75;;;12.80;56.86
76378;BME280;65200;49.500;8.654;2024-02-21T08:57:02;100999.78;;;12.99;57.68
76378;BME280;65200;49.500;8.654;2024-02-21T08:59:30;101001.22;;;13.16;55.84
76378;BME280;65200;49.500;8.654;2024-02-21T09:01:57;100990.06;;;13.61;55.97
76378;BME280;65200;49.500;8.654;2024-02-21T09:04:25;100994.41;;;13.84;55.34
76378;BME280;65200;49.500;8.654;2024-02-21T09:06:53;100992.09;;;13.81;54.14
76378;BME280;65200;49.500;8.654;2024-02-21T09:09:20;100992.53;;;13.63;55.05
76378;BME280;65200;49.500;8.654;2024-02-21T09:11:48;100986.72;;;13.17;55.18
76378;BME280;65200;49.500;8.654;2024-02-21T09:14:17;100987.00;;;13.43;55.05
76378;BME280;65200;49.500;8.654;2024-02-21T09:16:44;100978.13;;;13.70;53.89
76378;BME280;65200;49.500;8.654;2024-02-21T09:19:12;100973.88;;;13.61;54.78
76378;BME280;65200;49.500;8.654;2024-02-21T09:21:40;100970.53;;;13.53;56.22
76378;BME280;65200;49.500;8.654;2024-02-21T09:24:08;100964.41;;;13.93;54.04
76378;BME280;65200;49.500;8.654;2024-02-21T09:26:35;100969.53;;;13.88;53.98
76378;BME280;65200;49.500;8.654;2024-02-21T09:29:03;100957.28;;;13.86;53.91
76378;BME280;65200;49.500;8.654;2024-02-21T09:31:32;100963.47;;;14.14;54.66
76378;BME280;65200;49.500;8.654;2024-02-21T09:34:00;100962.72;;;14.67;52.51
76378;BME280;65200;49.500;8.654;2024-02-21T09:36:28;100951.84;;;14.41;53.37
76378;BME280;65200;49.500;8.654;2024-02-21T09:38:56;100959.38;;;14.18;53.70
76378;BME280;65200;49.500;8.654;2024-02-21T09:41:25;100953.56;;;13.87;53.44
76378;BME280;65200;49.500;8.654;2024-02-21T09:43:54;100950.88;;;13.87;54.92
76378;BME280;65200;49.500;8.654;2024-02-21T09:46:28;100947.75;;;14.58;53.87
76378;BME280;65200;49.500;8.654;2024-02-21T09:49:06;100942.78;;;14.21;53.12
76378;BME280;65200;49.500;8.654;2024-02-21T09:51:41;100939.16;;;14.35;53.22
76378;BME280;65200;49.500;8.654;2024-02-21T09:54:10;100945.25;;;13.82;54.49
76378;BME280;65200;49.500;8.654;2024-02-21T09:56:45;100930.50;;;13.77;53.52
76378;BME280;65200;49.500;8.654;2024-02-21T09:59:13;100929.00;;;14.03;55.04
76378;BME280;65200;49.500;8.654;2024-02-21T10:01:42;100928.78;;;14.32;53.12
76378;BME280;65200;49.500;8.654;2024-02-21T10:04:11;100919.25;;;14.36;52.47
76378;BME280;65200;49.500;8.654;2024-02-21T10:06:39;100921.34;;;14.40;54.02
76378;BME280;65200;49.500;8.654;2024-02-21T10:09:07;100925.19;;;14.78;52.01
76378;BME280;65200;49.500;8.654;2024-02-21T10:11:34;100928.50;;;14.74;52.53
76378;BME280;65200;49.500;8.654;2024-02-21T10:14:04;100924.84;;;14.88;52.38
76378;BME280;65200;49.500;8.654;2024-02-21T10:16:32;100917.22;;;14.51;53.17
76378;BME280;65200;49.500;8.654;2024-02-21T10:19:01;100914.94;;;14.48;52.22
76378;BME280;65200;49.500;8.654;2024-02-21T10:21:31;100916.38;;;14.44;52.66
76378;BME280;65200;49.500;8.654;2024-02-21T10:23:59;100907.06;;;14.12;53.65
76378;BME280;65200;49.500;8.654;2024-02-21T10:26:27;100906.06;;;14.13;52.85
76378;BME280;65200;49.500;8.654;2024-02-21T10:28:54;100900.53;;;14.88;51.82
76378;BME280;65200;49.500;8.654;2024-02-21T10:31:23;100896.25;;;14.40;53.36
76378;BME280;65200;49.500;8.654;2024-02-21T10:33:56;100896.78;;;14.82;52.83
76378;BME280;65200;49.500;8.654;2024-02-21T10:36:24;100891.91;;;14.39;52.86
76378;BME280;65200;49.500;8.654;2024-02-21T10:38:53;100894.31;;;14.87;51.47
76378;BME280;65200;49.500;8.654;2024-02-21T10:41:22;100891.72;;;14.53;53.33
76378;BME280;65200;49.500;8.654;2024-02-21T10:43:51;100870.66;;;15.55;51.47
76378;BME280;65200;49.500;8.654;2024-02-21T10:46:22;100872.09;;;15.64;49.70
76378;BME280;65200;49.500;8.654;2024-02-21T10:49:01;100872.66;;;14.08;53.60
76378;BME280;65200;49.500;8.654;2024-02-21T10:51:33;100860.47;;;15.11;51.47
76378;BME280;65200;49.500;8.654;2024-02-21T10:54:13;100854.66;;;14.88;52.03
76378;BME280;65200;49.500;8.654;2024-02-21T10:56:41;100844.00;;;14.60;53.17
76378;BME280;65200;49.500;8.654;2024-02-21T10:59:09;100835.75;;;14.75;52.28
76378;BME280;65200;49.500;8.654;2024-02-21T11:01:36;100836.59;;;15.47;51.79
76378;BME280;65200;49.500;8.654;2024-02-21T11:04:07;100834.47;;;15.69;49.57
76378;BME280;65200;49.500;8.654;2024-02-21T11:06:36;100839.66;;;14.59;52.99
76378;BME280;65200;49.500;8.654;2024-02-21T11:09:07;100835.34;;;15.50;51.35
76378;BME280;65200;49.500;8.654;2024-02-21T11:11:35;100826.41;;;15.10;51.44
76378;BME280;65200;49.500;8.654;2024-02-21T11:14:07;100820.09;;;15.81;50.55
76378;BME280;65200;49.500;8.654;2024-02-21T11:16:37;100820.09;;;15.75;51.13
76378;BME280;65200;49.500;8.654;2024-02-21T11:19:08;100813.56;;;14.86;51.70
76378;BME280;65200;49.500;8.654;2024-02-21T11:21:37;100809.16;;;15.50;50.36
76378;BME280;65200;49.500;8.654;2024-02-21T11:24:08;100800.25;;;15.17;51.62
76378;BME280;65200;49.500;8.654;2024-02-21T11:26:37;100791.13;;;14.92;51.39
76378;BME280;65200;49.500;8.654;2024-02-21T11:29:05;100802.13;;;15.03;50.47
76378;BME280;65200;49.500;8.654;2024-02-21T11:31:39;100791.75;;;15.13;50.96
76378;BME280;65200;49.500;8.654;2024-02-21T11:34:11;100787.78;;;15.16;51.54
76378;BME280;65200;49.500;8.654;2024-02-21T11:36:48;100786.56;;;14.92;51.10
76378;BME280;65200;49.500;8.654;2024-02-21T11:39:22;100770.13;;;15.46;50.18
76378;BME280;65200;49.500;8.654;2024-02-21T11:42:03;100771.59;;;14.90;51.86
76378;BME280;65200;49.500;8.654;2024-02-21T11:44:32;100764.09;;;15.31;49.94
76378;BME280;65200;49.500;8.654;2024-02-21T11:46:59;100748.75;;;15.12;50.93
76378;BME280;65200;49.500;8.654;2024-02-21T11:49:28;100747.88;;;15.95;50.19
76378;BME280;65200;49.500;8.654;2024-02-21T11:51:59;100742.44;;;15.57;49.29
76378;BME280;65200;49.500;8.654;2024-02-21T11:54:31;100736.84;;;15.52;48.44
76378;BME280;65200;49.500;8.654;2024-02-21T11:56:59;100740.19;;;15.35;49.49
76378;BME280;65200;49.500;8.654;2024-02-21T11:59:30;100737.94;;;15.19;49.40
76378;BME280;65200;49.500;8.654;2024-02-21T12:01:58;100729.81;;;15.32;48.95
76378;BME280;65200;49.500;8.654;2024-02-21T12:04:27;100729.66;;;15.07;48.93
76378;BME280;65200;49.500;8.654;2024-02-21T12:06:56;100724.16;;;15.59;48.64
76378;BME280;65200;49.500;8.654;2024-02-21T12:09:25;100714.63;;;15.37;48.73
76378;BME280;65200;49.500;8.654;2024-02-21T12:12:01;100710.34;;;14.97;49.27
76378;BME280;65200;49.500;8.654;2024-02-21T12:14:31;100712.44;;;14.95;48.94
76378;BME280;65200;49.500;8.654;2024-02-21T12:17:00;100695.31;;;15.27;49.00
76378;BME280;65200;49.500;8.654;2024-02-21T12:19:30;100697.69;;;14.97;48.75
76378;BME280;65200;49.500;8.654;2024-02-21T12:21:59;100688.31;;;15.77;48.12
76378;BME280;65200;49.500;8.654;2024-02-21T12:24:28;100688.59;;;14.72;48.70
76378;BME280;65200;49.500;8.654;2024-02-21T12:26:57;100679.25;;;14.75;50.59
76378;BME280;65200;49.500;8.654;2024-02-21T12:29:27;100672.53;;;15.10;49.38
76378;BME280;65200;49.500;8.654;2024-02-21T12:31:56;100666.66;;;15.26;49.25
76378;BME280;65200;49.500;8.654;2024-02-21T12:34:24;100665.91;;;15.63;48.96
76378;BME280;65200;49.500;8.654;2024-02-21T12:37:10;100661.72;;;15.74;47.91
76378;BME280;65200;49.500;8.654;2024-02-21T12:39:39;100650.00;;;15.42;48.69
76378;BME280;65200;49.500;8.654;2024-02-21T12:42:06;100648.13;;;15.49;49.60
76378;BME280;65200;49.500;8.654;2024-02-21T12:44:36;100633.16;;;15.84;49.22
76378;BME280;65200;49.500;8.654;2024-02-21T12:47:04;100626.69;;;15.92;47.68
76378;BME280;65200;49.500;8.654;2024-02-21T12:49:32;100627.25;;;15.69;48.38
76378;BME280;65200;49.500;8.654;2024-02-21T12:52:00;100615.75;;;15.36;49.08
76378;BME280;65200;49.500;8.654;2024-02-21T12:54:27;100611.53;;;15.02;49.91
76378;BME280;65200;49.500;8.654;2024-02-21T12:56:56;100613.88;;;15.43;50.29